sensor_id;sensor_type;location;lat;lon;timestamp;P1;durP1;ratioP1;P2;durP2;ratioP2
76290;SDS011;65100;46.884;17.410;2023-08-12T00:02:08;9.80;;;5.37;;
76290;SDS011;65100;46.884;17.410;2023-08-12T00:04:34;10.40;;;5.43;;
76290;SDS011;65100;46.884;17.410;2023-08-12T00:06:59;8.83;;;5.40;;
76290;SDS011;65100;46.884;17.410;2023-08-12T00:09:25;9.20;;;5.40;;
76290;SDS011;65100;46.884;17.410;2023-08-12T00:11:50;9.00;;;5.17;;
76290;SDS011;65100;46.884;17.410;2023-08-12T00:14:16;11.07;;;5.53;;
76290;SDS011;65100;46.884;17.410;2023-08-12T00:16:41;8.93;;;5.50;;
76290;SDS011;65100;46.884;17.410;2023-08-12T00:19:07;8.07;;;5.20;;
76290;SDS011;65100;46.884;17.410;2023-08-12T00:21:33;8.85;;;5.28;;
76290;SDS011;65100;46.884;17.410;2023-08-12T00:23:58;9.37;;;5.60;;
76290;SDS011;65100;46.884;17.410;2023-08-12T00:26:24;9.43;;;5.50;;
76290;SDS011;65100;46.884;17.410;2023-08-12T00:28:50;10.80;;;5.40;;
76290;SDS011;65100;46.884;17.410;2023-08-12T00:31:16;9.82;;;5.32;;
76290;SDS011;65100;46.884;17.410;2023-08-12T00:33:41;9.67;;;5.50;;
76290;SDS011;65100;46.884;17.410;2023-08-12T00:36:07;10.70;;;5.50;;
76290;SDS011;65100;46.884;17.410;2023-08-12T00:38:32;9.00;;;5.30;;
76290;SDS011;65100;46.884;17.410;2023-08-12T00:40:58;10.50;;;5.63;;
76290;SDS011;65100;46.884;17.410;2023-08-12T00:43:23;8.55;;;5.35;;
76290;SDS011;65100;46.884;17.410;2023-08-12T00:45:49;9.70;;;5.20;;
76290;SDS011;65100;46.884;17.410;2023-08-12T00:48:15;10.37;;;5.90;;
76290;SDS011;65100;46.884;17.410;2023-08-12T00:50:42;9.10;;;5.60;;
76290;SDS011;65100;46.884;17.410;2023-08-12T00:53:08;8.63;;;5.60;;
76290;SDS011;65100;46.884;17.410;2023-08-12T00:55:35;12.20;;;5.43;;
76290;SDS011;65100;46.884;17.410;2023-08-12T00:58:00;9.30;;;5.50;;
76290;SDS011;65100;46.884;17.410;2023-08-12T01:00:27;8.75;;;5.18;;
76290;SDS011;65100;46.884;17.410;2023-08-12T01:02:53;9.53;;;5.20;;
76290;SDS011;65100;46.884;17.410;2023-08-12T01:05:19;9.65;;;5.55;;
76290;SDS011;65100;46.884;17.410;2023-08-12T01:07:45;8.30;;;5.30;;
76290;SDS011;65100;46.884;17.410;2023-08-12T01:10:11;9.03;;;5.10;;
76290;SDS011;65100;46.884;17.410;2023-08-12T01:12:50;9.05;;;5.03;;
76290;SDS011;65100;46.884;17.410;2023-08-12T01:15:20;9.50;;;5.30;;
76290;SDS011;65100;46.884;17.410;2023-08-12T01:17:47;10.35;;;5.90;;
76290;SDS011;65100;46.884;17.410;2023-08-12T01:20:17;10.02;;;5.20;;
76290;SDS011;65100;46.884;17.410;2023-08-12T01:22:49;10.70;;;5.30;;
76290;SDS011;65100;46.884;17.410;2023-08-12T01:25:22;8.45;;;5.18;;
76290;SDS011;65100;46.884;17.410;2023-08-12T01:27:49;9.35;;;5.40;;
76290;SDS011;65100;46.884;17.410;2023-08-12T01:30:14;8.75;;;4.90;;
76290;SDS011;65100;46.884;17.410;2023-08-12T01:32:56;10.40;;;5.53;;
76290;SDS011;65100;46.884;17.410;2023-08-12T01:35:40;8.83;;;5.40;;
76290;SDS011;65100;46.884;17.410;2023-08-12T01:38:11;8.20;;;5.00;;
76290;SDS011;65100;46.884;17.410;2023-08-12T01:40:37;8.87;;;5.27;;
76290;SDS011;65100;46.884;17.410;2023-08-12T01:43:03;8.88;;;5.20;;
76290;SDS011;65100;46.884;17.410;2023-08-12T01:45:30;10.43;;;5.45;;
76290;SDS011;65100;46.884;17.410;2023-08-12T01:48:00;8.27;;;5.20;;
76290;SDS011;65100;46.884;17.410;2023-08-12T01:50:25;8.33;;;5.10;;
76290;SDS011;65100;46.884;17.410;2023-08-12T01:52:51;10.70;;;5.33;;
76290;SDS011;65100;46.884;17.410;2023-08-12T01:55:16;9.37;;;5.20;;
76290;SDS011;65100;46.884;17.410;2023-08-12T01:57:42;9.60;;;5.00;;
76290;SDS011;65100;46.884;17.410;2023-08-12T02:00:07;8.15;;;5.18;;
76290;SDS011;65100;46.884;17.410;2023-08-12T02:02:33;8.93;;;5.33;;
76290;SDS011;65100;46.884;17.410;2023-08-12T02:04:59;9.52;;;4.88;;
76290;SDS011;65100;46.884;17.410;2023-08-12T02:07:24;9.60;;;5.00;;
76290;SDS011;65100;46.884;17.410;2023-08-12T02:09:50;8.93;;;5.13;;
76290;SDS011;65100;46.884;17.410;2023-08-12T02:12:15;9.00;;;5.07;;
76290;SDS011;65100;46.884;17.410;2023-08-12T02:14:41;11.33;;;5.43;;
76290;SDS011;65100;46.884;17.410;2023-08-12T02:17:06;9.20;;;5.13;;
76290;SDS011;65100;46.884;17.410;2023-08-12T02:19:32;8.67;;;4.90;;
76290;SDS011;65100;46.884;17.410;2023-08-12T02:21:58;8.95;;;5.30;;
76290;SDS011;65100;46.884;17.410;2023-08-12T02:24:24;9.83;;;5.00;;
76290;SDS011;65100;46.884;17.410;2023-08-12T02:26:49;8.23;;;5.00;;
76290;SDS011;65100;46.884;17.410;2023-08-12T02:29:15;8.77;;;5.17;;
76290;SDS011;65100;46.884;17.410;2023-08-12T02:31:40;8.97;;;5.37;;
76290;SDS011;65100;46.884;17.410;2023-08-12T02:34:06;9.97;;;5.20;;
76290;SDS011;65100;46.884;17.410;2023-08-12T02:36:31;8.83;;;5.13;;
76290;SDS011;65100;46.884;17.410;2023-08-12T02:38:57;8.90;;;5.20;;
76290;SDS011;65100;46.884;17.410;2023-08-12T02:41:22;9.10;;;5.10;;
76290;SDS011;65100;46.884;17.410;2023-08-12T02:43:48;9.10;;;5.07;;
76290;SDS011;65100;46.884;17.410;2023-08-12T02:46:13;9.17;;;5.07;;
76290;SDS011;65100;46.884;17.410;2023-08-12T02:48:40;10.02;;;4.82;;
76290;SDS011;65100;46.884;17.410;2023-08-12T02:51:06;8.38;;;5.00;;
76290;SDS011;65100;46.884;17.410;2023-08-12T02:53:32;8.47;;;4.60;;
76290;SDS011;65100;46.884;17.410;2023-08-12T02:55:57;9.47;;;5.13;;
76290;SDS011;65100;46.884;17.410;2023-08-12T02:58:22;8.37;;;4.80;;
76290;SDS011;65100;46.884;17.410;2023-08-12T03:00:48;9.85;;;4.78;;
76290;SDS011;65100;46.884;17.410;2023-08-12T03:03:13;9.33;;;5.33;;
76290;SDS011;65100;46.884;17.410;2023-08-12T03:05:39;9.03;;;5.20;;
76290;SDS011;65100;46.884;17.410;2023-08-12T03:08:05;9.35;;;5.07;;
76290;SDS011;65100;46.884;17.410;2023-08-12T03:10:32;8.90;;;5.17;;
76290;SDS011;65100;46.884;17.410;2023-08-12T03:12:59;10.32;;;5.30;;
76290;SDS011;65100;46.884;17.410;2023-08-12T03:15:24;9.40;;;5.30;;
76290;SDS011;65100;46.884;17.410;2023-08-12T03:17:50;8.55;;;4.85;;
76290;SDS011;65100;46.884;17.410;2023-08-12T03:20:15;8.30;;;5.10;;
76290;SDS011;65100;46.884;17.410;2023-08-12T03:22:41;8.90;;;5.30;;
76290;SDS011;65100;46.884;17.410;2023-08-12T03:25:06;9.40;;;5.20;;
76290;SDS011;65100;46.884;17.410;2023-08-12T03:27:32;9.13;;;5.00;;
76290;SDS011;65100;46.884;17.410;2023-08-12T03:29:58;8.53;;;5.13;;
76290;SDS011;65100;46.884;17.410;2023-08-12T03:32:26;9.18;;;5.30;;
76290;SDS011;65100;46.884;17.410;2023-08-12T03:34:51;8.30;;;4.97;;
76290;SDS011;65100;46.884;17.410;2023-08-12T03:37:18;10.10;;;5.03;;
76290;SDS011;65100;46.884;17.410;2023-08-12T03:39:44;9.65;;;5.32;;
76290;SDS011;65100;46.884;17.410;2023-08-12T03:42:09;9.00;;;5.00;;
76290;SDS011;65100;46.884;17.410;2023-08-12T03:44:34;8.98;;;5.00;;
76290;SDS011;65100;46.884;17.410;2023-08-12T03:47:00;8.80;;;5.33;;
76290;SDS011;65100;46.884;17.410;2023-08-12T03:49:25;8.37;;;5.10;;
76290;SDS011;65100;46.884;17.410;2023-08-12T03:51:51;8.87;;;4.97;;
76290;SDS011;65100;46.884;17.410;2023-08-12T03:54:16;8.30;;;5.30;;
76290;SDS011;65100;46.884;17.410;2023-08-12T03:56:43;7.88;;;4.75;;
76290;SDS011;65100;46.884;17.410;2023-08-12T03:59:08;8.77;;;5.00;;
76290;SDS011;65100;46.884;17.410;2023-08-12T04:01:33;8.33;;;4.90;;
76290;SDS011;65100;46.884;17.410;2023-08-12T04:03:59;8.57;;;4.97;;
76290;SDS011;65100;46.884;17.410;2023-08-12T04:06:24;9.50;;;5.17;;
76290;SDS011;65100;46.884;17.410;2023-08-12T04:08:50;8.40;;;5.20;;
76290;SDS011;65100;46.884;17.410;2023-08-12T04:11:15;9.90;;;5.20;;
76290;SDS011;65100;46.884;17.410;2023-08-12T04:13:41;8.50;;;5.10;;
76290;SDS011;65100;46.884;17.410;2023-08-12T04:16:06;10.83;;;4.70;;
76290;SDS011;65100;46.884;17.410;2023-08-12T04:18:31;9.38;;;4.90;;
76290;SDS011;65100;46.884;17.410;2023-08-12T04:20:57;10.07;;;4.87;;
76290;SDS011;65100;46.884;17.410;2023-08-12T04:23:22;8.70;;;4.80;;
76290;SDS011;65100;46.884;17.410;2023-08-12T04:25:48;8.83;;;4.93;;
76290;SDS011;65100;46.884;17.410;2023-08-12T04:28:14;9.95;;;4.80;;
76290;SDS011;65100;46.884;17.410;2023-08-12T04:30:44;7.97;;;4.53;;
76290;SDS011;65100;46.884;17.410;2023-08-12T04:33:10;8.05;;;4.57;;
76290;SDS011;65100;46.884;17.410;2023-08-12T04:35:36;9.18;;;5.03;;
76290;SDS011;65100;46.884;17.410;2023-08-12T04:38:02;8.30;;;4.90;;
76290;SDS011;65100;46.884;17.410;2023-08-12T04:40:28;8.50;;;4.80;;
76290;SDS011;65100;46.884;17.410;2023-08-12T04:42:53;8.30;;;4.20;;
76290;SDS011;65100;46.884;17.410;2023-08-12T04:45:19;8.80;;;4.77;;
76290;SDS011;65100;46.884;17.410;2023-08-12T04:47:44;8.75;;;4.80;;
76290;SDS011;65100;46.884;17.410;2023-08-12T04:50:09;9.60;;;4.67;;
76290;SDS011;65100;46.884;17.410;2023-08-12T04:52:35;7.53;;;4.73;;
76290;SDS011;65100;46.884;17.410;2023-08-12T04:55:01;8.87;;;4.60;;
76290;SDS011;65100;46.884;17.410;2023-08-12T04:57:26;8.93;;;4.60;;
76290;SDS011;65100;46.884;17.410;2023-08-12T04:59:52;8.37;;;4.80;;
76290;SDS011;65100;46.884;17.410;2023-08-12T05:02:18;8.13;;;4.60;;
76290;SDS011;65100;46.884;17.410;2023-08-12T05:04:48;8.02;;;4.90;;
76290;SDS011;65100;46.884;17.410;2023-08-12T05:07:15;7.83;;;4.80;;
76290;SDS011;65100;46.884;17.410;2023-08-12T05:09:41;7.68;;;4.82;;
76290;SDS011;65100;46.884;17.410;2023-08-12T05:12:08;7.35;;;4.45;;
76290;SDS011;65100;46.884;17.410;2023-08-12T05:14:34;8.95;;;4.80;;
76290;SDS011;65100;46.884;17.410;2023-08-12T05:17:00;9.30;;;4.70;;
76290;SDS011;65100;46.884;17.410;2023-08-12T05:19:25;9.07;;;4.90;;
76290;SDS011;65100;46.884;17.410;2023-08-12T05:21:50;8.33;;;5.30;;
76290;SDS011;65100;46.884;17.410;2023-08-12T05:24:16;8.83;;;5.10;;
76290;SDS011;65100;46.884;17.410;2023-08-12T05:26:41;11.07;;;6.30;;
76290;SDS011;65100;46.884;17.410;2023-08-12T05:29:07;16.10;;;10.13;;
76290;SDS011;65100;46.884;17.410;2023-08-12T05:31:32;13.17;;;8.87;;
76290;SDS011;65100;46.884;17.410;2023-08-12T05:33:58;13.32;;;7.53;;
76290;SDS011;65100;46.884;17.410;2023-08-12T05:36:23;12.67;;;8.30;;
76290;SDS011;65100;46.884;17.410;2023-08-12T05:38:49;14.30;;;8.53;;
76290;SDS011;65100;46.884;17.410;2023-08-12T05:41:14;11.90;;;8.13;;
76290;SDS011;65100;46.884;17.410;2023-08-12T05:43:40;12.25;;;7.95;;
76290;SDS011;65100;46.884;17.410;2023-08-12T05:46:05;12.17;;;7.70;;
76290;SDS011;65100;46.884;17.410;2023-08-12T05:48:30;11.80;;;6.60;;
76290;SDS011;65100;46.884;17.410;2023-08-12T05:50:56;10.90;;;6.70;;
76290;SDS011;65100;46.884;17.410;2023-08-12T05:53:21;11.10;;;6.68;;
76290;SDS011;65100;46.884;17.410;2023-08-12T05:55:48;10.55;;;6.10;;
76290;SDS011;65100;46.884;17.410;2023-08-12T05:58:13;9.23;;;5.87;;
76290;SDS011;65100;46.884;17.410;2023-08-12T06:00:38;10.33;;;6.10;;
76290;SDS011;65100;46.884;17.410;2023-08-12T06:03:04;9.47;;;6.23;;
76290;SDS011;65100;46.884;17.410;2023-08-12T06:05:29;13.07;;;8.60;;
76290;SDS011;65100;46.884;17.410;2023-08-12T06:07:55;14.73;;;9.50;;
76290;SDS011;65100;46.884;17.410;2023-08-12T06:10:20;10.93;;;8.03;;
76290;SDS011;65100;46.884;17.410;2023-08-12T06:12:46;13.13;;;9.17;;
76290;SDS011;65100;46.884;17.410;2023-08-12T06:15:11;14.00;;;8.65;;
76290;SDS011;65100;46.884;17.410;2023-08-12T06:17:36;13.17;;;8.50;;
76290;SDS011;65100;46.884;17.410;2023-08-12T06:20:02;12.37;;;8.37;;
76290;SDS011;65100;46.884;17.410;2023-08-12T06:22:27;12.67;;;8.77;;
76290;SDS011;65100;46.884;17.410;2023-08-12T06:24:53;15.10;;;9.00;;
76290;SDS011;65100;46.884;17.410;2023-08-12T06:27:18;12.27;;;9.20;;
76290;SDS011;65100;46.884;17.410;2023-08-12T06:29:45;11.50;;;8.50;;
76290;SDS011;65100;46.884;17.410;2023-08-12T06:32:11;12.07;;;8.50;;
76290;SDS011;65100;46.884;17.410;2023-08-12T06:34:39;13.13;;;8.10;;
76290;SDS011;65100;46.884;17.410;2023-08-12T06:37:05;11.68;;;8.32;;
76290;SDS011;65100;46.884;17.410;2023-08-12T06:39:30;12.93;;;7.70;;
76290;SDS011;65100;46.884;17.410;2023-08-12T06:41:56;12.30;;;7.60;;
76290;SDS011;65100;46.884;17.410;2023-08-12T06:44:21;14.37;;;7.97;;
76290;SDS011;65100;46.884;17.410;2023-08-12T06:46:47;11.10;;;7.50;;
76290;SDS011;65100;46.884;17.410;2023-08-12T06:49:12;12.33;;;7.20;;
76290;SDS011;65100;46.884;17.410;2023-08-12T06:51:38;11.80;;;6.30;;
76290;SDS011;65100;46.884;17.410;2023-08-12T06:54:03;12.97;;;6.30;;
76290;SDS011;65100;46.884;17.410;2023-08-12T06:56:29;9.90;;;5.90;;
76290;SDS011;65100;46.884;17.410;2023-08-12T06:58:55;9.73;;;5.20;;
76290;SDS011;65100;46.884;17.410;2023-08-12T07:01:21;13.15;;;5.40;;
76290;SDS011;65100;46.884;17.410;2023-08-12T07:03:46;10.80;;;5.70;;
76290;SDS011;65100;46.884;17.410;2023-08-12T07:06:12;10.13;;;5.27;;
76290;SDS011;65100;46.884;17.410;2023-08-12T07:08:37;8.32;;;4.80;;
76290;SDS011;65100;46.884;17.410;2023-08-12T07:11:02;8.80;;;4.40;;
76290;SDS011;65100;46.884;17.410;2023-08-12T07:13:29;8.18;;;4.40;;
76290;SDS011;65100;46.884;17.410;2023-08-12T07:15:54;11.50;;;5.10;;
76290;SDS011;65100;46.884;17.410;2023-08-12T07:21:26;9.85;;;5.05;;
76290;SDS011;65100;46.884;17.410;2023-08-12T07:23:52;7.77;;;4.90;;
76290;SDS011;65100;46.884;17.410;2023-08-12T07:26:17;9.50;;;5.00;;
76290;SDS011;65100;46.884;17.410;2023-08-12T07:28:43;7.63;;;4.78;;
76290;SDS011;65100;46.884;17.410;2023-08-12T07:31:08;8.50;;;4.90;;
76290;SDS011;65100;46.884;17.410;2023-08-12T07:33:34;9.07;;;5.00;;
76290;SDS011;65100;46.884;17.410;2023-08-12T07:36:00;8.15;;;4.50;;
76290;SDS011;65100;46.884;17.410;2023-08-12T07:38:26;7.78;;;4.40;;
76290;SDS011;65100;46.884;17.410;2023-08-12T07:40:51;7.73;;;4.67;;
76290;SDS011;65100;46.884;17.410;2023-08-12T07:43:17;8.17;;;4.93;;
76290;SDS011;65100;46.884;17.410;2023-08-12T07:45:42;8.05;;;4.70;;
76290;SDS011;65100;46.884;17.410;2023-08-12T07:48:08;8.63;;;4.87;;
76290;SDS011;65100;46.884;17.410;2023-08-12T07:50:34;7.85;;;4.70;;
76290;SDS011;65100;46.884;17.410;2023-08-12T07:52:59;9.00;;;4.43;;
76290;SDS011;65100;46.884;17.410;2023-08-12T07:55:25;7.90;;;4.87;;
76290;SDS011;65100;46.884;17.410;2023-08-12T07:57:50;7.32;;;4.40;;
76290;SDS011;65100;46.884;17.410;2023-08-12T08:00:16;8.20;;;4.40;;
76290;SDS011;65100;46.884;17.410;2023-08-12T08:02:41;6.93;;;4.37;;
76290;SDS011;65100;46.884;17.410;2023-08-12T08:05:07;7.10;;;4.45;;
76290;SDS011;65100;46.884;17.410;2023-08-12T08:07:33;6.83;;;4.17;;
76290;SDS011;65100;46.884;17.410;2023-08-12T08:09:59;8.52;;;4.50;;
76290;SDS011;65100;46.884;17.410;2023-08-12T08:12:24;6.67;;;4.30;;
76290;SDS011;65100;46.884;17.410;2023-08-12T08:14:49;7.38;;;4.43;;
76290;SDS011;65100;46.884;17.410;2023-08-12T08:17:15;6.73;;;4.07;;
76290;SDS011;65100;46.884;17.410;2023-08-12T08:19:40;7.80;;;4.60;;
76290;SDS011;65100;46.884;17.410;2023-08-12T08:22:06;7.23;;;4.40;;
76290;SDS011;65100;46.884;17.410;2023-08-12T08:24:31;7.90;;;4.10;;
76290;SDS011;65100;46.884;17.410;2023-08-12T08:26:57;7.67;;;4.30;;
76290;SDS011;65100;46.884;17.410;2023-08-12T08:29:22;6.60;;;4.10;;
76290;SDS011;65100;46.884;17.410;2023-08-12T08:31:48;7.25;;;4.20;;
76290;SDS011;65100;46.884;17.410;2023-08-12T08:34:14;6.70;;;3.90;;
76290;SDS011;65100;46.884;17.410;2023-08-12T08:36:40;12.52;;;7.20;;
76290;SDS011;65100;46.884;17.410;2023-08-12T08:39:05;7.38;;;3.90;;
76290;SDS011;65100;46.884;17.410;2023-08-12T08:41:31;8.90;;;3.90;;
76290;SDS011;65100;46.884;17.410;2023-08-12T08:44:00;7.72;;;4.00;;
76290;SDS011;65100;46.884;17.410;2023-08-12T08:46:28;7.85;;;3.90;;
76290;SDS011;65100;46.884;17.410;2023-08-12T08:48:54;6.93;;;3.90;;
76290;SDS011;65100;46.884;17.410;2023-08-12T08:51:23;6.70;;;3.80;;
76290;SDS011;65100;46.884;17.410;2023-08-12T08:53:50;8.57;;;4.07;;
76290;SDS011;65100;46.884;17.410;2023-08-12T08:56:19;6.55;;;3.92;;
76290;SDS011;65100;46.884;17.410;2023-08-12T08:58:45;7.43;;;4.00;;
76290;SDS011;65100;46.884;17.410;2023-08-12T09:01:11;6.82;;;3.97;;
76290;SDS011;65100;46.884;17.410;2023-08-12T09:03:38;7.63;;;4.28;;
76290;SDS011;65100;46.884;17.410;2023-08-12T09:06:04;7.30;;;4.60;;
76290;SDS011;65100;46.884;17.410;2023-08-12T09:08:31;9.25;;;4.50;;
76290;SDS011;65100;46.884;17.410;2023-08-12T09:10:57;7.03;;;4.22;;
76290;SDS011;65100;46.884;17.410;2023-08-12T09:13:24;6.68;;;4.25;;
76290;SDS011;65100;46.884;17.410;2023-08-12T09:15:50;7.43;;;4.13;;
76290;SDS011;65100;46.884;17.410;2023-08-12T09:18:16;7.50;;;4.00;;
76290;SDS011;65100;46.884;17.410;2023-08-12T09:20:42;7.38;;;3.97;;
76290;SDS011;65100;46.884;17.410;2023-08-12T09:23:08;6.95;;;3.95;;
76290;SDS011;65100;46.884;17.410;2023-08-12T09:25:40;7.22;;;3.30;;
76290;SDS011;65100;46.884;17.410;2023-08-12T09:28:08;6.83;;;3.70;;
76290;SDS011;65100;46.884;17.410;2023-08-12T09:30:34;9.15;;;3.47;;
76290;SDS011;65100;46.884;17.410;2023-08-12T09:33:06;6.40;;;3.63;;
76290;SDS011;65100;46.884;17.410;2023-08-12T09:35:33;6.57;;;3.50;;
76290;SDS011;65100;46.884;17.410;2023-08-12T09:38:01;6.72;;;3.53;;
76290;SDS011;65100;46.884;17.410;2023-08-12T09:40:31;8.90;;;3.50;;
76290;SDS011;65100;46.884;17.410;2023-08-12T09:42:58;6.15;;;3.30;;
76290;SDS011;65100;46.884;17.410;2023-08-12T09:45:24;8.43;;;3.20;;
76290;SDS011;65100;46.884;17.410;2023-08-12T09:47:50;6.10;;;3.60;;
76290;SDS011;65100;46.884;17.410;2023-08-12T09:50:17;9.00;;;3.35;;
76290;SDS011;65100;46.884;17.410;2023-08-12T09:52:42;6.80;;;3.20;;
76290;SDS011;65100;46.884;17.410;2023-08-12T09:55:08;7.35;;;3.40;;
76290;SDS011;65100;46.884;17.410;2023-08-12T09:57:36;7.53;;;3.30;;
76290;SDS011;65100;46.884;17.410;2023-08-12T10:00:05;6.43;;;3.00;;
76290;SDS011;65100;46.884;17.410;2023-08-12T10:02:37;6.35;;;3.05;;
76290;SDS011;65100;46.884;17.410;2023-08-12T10:05:04;6.05;;;3.28;;
76290;SDS011;65100;46.884;17.410;2023-08-12T10:07:30;7.07;;;3.40;;
76290;SDS011;65100;46.884;17.410;2023-08-12T10:09:56;6.20;;;3.23;;
76290;SDS011;65100;46.884;17.410;2023-08-12T10:12:22;6.63;;;3.20;;
76290;SDS011;65100;46.884;17.410;2023-08-12T10:14:48;8.77;;;3.70;;
76290;SDS011;65100;46.884;17.410;2023-08-12T10:17:13;6.13;;;3.37;;
76290;SDS011;65100;46.884;17.410;2023-08-12T10:19:43;6.55;;;3.50;;
76290;SDS011;65100;46.884;17.410;2023-08-12T10:22:09;9.65;;;3.67;;
76290;SDS011;65100;46.884;17.410;2023-08-12T10:24:35;7.00;;;3.40;;
76290;SDS011;65100;46.884;17.410;2023-08-12T10:27:02;7.55;;;3.40;;
76290;SDS011;65100;46.884;17.410;2023-08-12T10:29:29;6.90;;;3.30;;
76290;SDS011;65100;46.884;17.410;2023-08-12T10:31:55;7.53;;;3.50;;
76290;SDS011;65100;46.884;17.410;2023-08-12T10:34:22;6.82;;;3.50;;
76290;SDS011;65100;46.884;17.410;2023-08-12T10:36:53;5.93;;;3.22;;
76290;SDS011;65100;46.884;17.410;2023-08-12T10:39:25;8.23;;;3.65;;
76290;SDS011;65100;46.884;17.410;2023-08-12T10:41:51;7.33;;;3.50;;
76290;SDS011;65100;46.884;17.410;2023-08-12T10:44:20;7.80;;;3.70;;
76290;SDS011;65100;46.884;17.410;2023-08-12T10:46:52;6.60;;;3.20;;
76290;SDS011;65100;46.884;17.410;2023-08-12T10:49:19;5.75;;;3.33;;
76290;SDS011;65100;46.884;17.410;2023-08-12T11:04:48;6.35;;;3.72;;
76290;SDS011;65100;46.884;17.410;2023-08-12T11:07:17;7.18;;;3.53;;
76290;SDS011;65100;46.884;17.410;2023-08-12T11:09:45;7.93;;;3.30;;
76290;SDS011;65100;46.884;17.410;2023-08-12T11:12:10;6.40;;;3.60;;
76290;SDS011;65100;46.884;17.410;2023-08-12T11:17:38;7.13;;;3.50;;
76290;SDS011;65100;46.884;17.410;2023-08-12T11:20:06;6.63;;;3.50;;
76290;SDS011;65100;46.884;17.410;2023-08-12T11:22:37;6.25;;;3.75;;
76290;SDS011;65100;46.884;17.410;2023-08-12T11:25:07;7.10;;;4.20;;
76290;SDS011;65100;46.884;17.410;2023-08-12T11:27:55;7.32;;;3.97;;
76290;SDS011;65100;46.884;17.410;2023-08-12T11:30:20;6.57;;;3.90;;
76290;SDS011;65100;46.884;17.410;2023-08-12T11:32:47;7.15;;;3.80;;
76290;SDS011;65100;46.884;17.410;2023-08-12T11:35:20;6.72;;;4.10;;
76290;SDS011;65100;46.884;17.410;2023-08-12T11:37:48;7.57;;;4.13;;
76290;SDS011;65100;46.884;17.410;2023-08-12T11:40:15;7.28;;;4.13;;
76290;SDS011;65100;46.884;17.410;2023-08-12T11:42:43;7.27;;;3.80;;
76290;SDS011;65100;46.884;17.410;2023-08-12T11:45:09;6.82;;;4.07;;
76290;SDS011;65100;46.884;17.410;2023-08-12T11:47:36;7.35;;;4.20;;
76290;SDS011;65100;46.884;17.410;2023-08-12T11:50:05;6.93;;;4.07;;
76290;SDS011;65100;46.884;17.410;2023-08-12T11:52:33;7.65;;;4.18;;
76290;SDS011;65100;46.884;17.410;2023-08-12T11:54:59;7.83;;;3.70;;
76290;SDS011;65100;46.884;17.410;2023-08-12T11:57:25;7.25;;;4.10;;
76290;SDS011;65100;46.884;17.410;2023-08-12T11:59:53;6.53;;;4.05;;
76290;SDS011;65100;46.884;17.410;2023-08-12T12:02:24;7.65;;;4.38;;
76290;SDS011;65100;46.884;17.410;2023-08-12T12:04:51;8.57;;;4.20;;
76290;SDS011;65100;46.884;17.410;2023-08-12T12:07:17;6.70;;;4.00;;
76290;SDS011;65100;46.884;17.410;2023-08-12T12:09:44;6.93;;;3.90;;
76290;SDS011;65100;46.884;17.410;2023-08-12T12:12:09;7.00;;;4.15;;
76290;SDS011;65100;46.884;17.410;2023-08-12T12:14:35;7.63;;;4.20;;
76290;SDS011;65100;46.884;17.410;2023-08-12T12:17:06;6.43;;;3.87;;
76290;SDS011;65100;46.884;17.410;2023-08-12T12:19:32;6.70;;;3.80;;
76290;SDS011;65100;46.884;17.410;2023-08-12T12:21:58;7.63;;;4.20;;
76290;SDS011;65100;46.884;17.410;2023-08-12T12:24:29;6.40;;;4.22;;
76290;SDS011;65100;46.884;17.410;2023-08-12T12:26:55;6.90;;;4.10;;
76290;SDS011;65100;46.884;17.410;2023-08-12T12:29:22;6.77;;;3.90;;
76290;SDS011;65100;46.884;17.410;2023-08-12T12:31:48;6.75;;;4.22;;
76290;SDS011;65100;46.884;17.410;2023-08-12T12:34:13;6.32;;;3.88;;
76290;SDS011;65100;46.884;17.410;2023-08-12T12:36:39;8.07;;;4.20;;
76290;SDS011;65100;46.884;17.410;2023-08-12T12:39:05;7.38;;;4.10;;
76290;SDS011;65100;46.884;17.410;2023-08-12T12:41:32;6.88;;;4.22;;
76290;SDS011;65100;46.884;17.410;2023-08-12T12:43:59;7.80;;;3.83;;
76290;SDS011;65100;46.884;17.410;2023-08-12T12:46:25;9.52;;;4.13;;
76290;SDS011;65100;46.884;17.410;2023-08-12T12:48:51;6.70;;;4.20;;
76290;SDS011;65100;46.884;17.410;2023-08-12T12:51:16;7.20;;;4.30;;
76290;SDS011;65100;46.884;17.410;2023-08-12T12:53:42;7.37;;;4.50;;
76290;SDS011;65100;46.884;17.410;2023-08-12T12:56:07;6.60;;;4.07;;
76290;SDS011;65100;46.884;17.410;2023-08-12T12:58:33;7.63;;;4.30;;
76290;SDS011;65100;46.884;17.410;2023-08-12T13:01:00;6.80;;;4.10;;
76290;SDS011;65100;46.884;17.410;2023-08-12T13:03:26;7.10;;;3.95;;
76290;SDS011;65100;46.884;17.410;2023-08-12T13:05:51;6.73;;;3.60;;
76290;SDS011;65100;46.884;17.410;2023-08-12T13:08:17;7.00;;;4.20;;
76290;SDS011;65100;46.884;17.410;2023-08-12T13:10:43;6.95;;;4.20;;
76290;SDS011;65100;46.884;17.410;2023-08-12T13:13:08;8.03;;;4.40;;
76290;SDS011;65100;46.884;17.410;2023-08-12T13:15:34;6.63;;;4.05;;
76290;SDS011;65100;46.884;17.410;2023-08-12T13:18:00;7.68;;;4.18;;
76290;SDS011;65100;46.884;17.410;2023-08-12T13:20:25;7.77;;;4.33;;
76290;SDS011;65100;46.884;17.410;2023-08-12T13:22:51;7.00;;;4.50;;
76290;SDS011;65100;46.884;17.410;2023-08-12T13:25:16;7.43;;;4.07;;
76290;SDS011;65100;46.884;17.410;2023-08-12T13:27:42;6.43;;;3.80;;
76290;SDS011;65100;46.884;17.410;2023-08-12T13:30:08;7.18;;;4.22;;
76290;SDS011;65100;46.884;17.410;2023-08-12T13:32:36;7.37;;;4.00;;
76290;SDS011;65100;46.884;17.410;2023-08-12T13:35:02;6.95;;;4.20;;
76290;SDS011;65100;46.884;17.410;2023-08-12T13:37:27;6.95;;;4.00;;
76290;SDS011;65100;46.884;17.410;2023-08-12T13:39:53;7.47;;;4.40;;
76290;SDS011;65100;46.884;17.410;2023-08-12T13:42:18;8.00;;;4.30;;
76290;SDS011;65100;46.884;17.410;2023-08-12T13:44:44;9.10;;;4.60;;
76290;SDS011;65100;46.884;17.410;2023-08-12T13:47:09;6.87;;;4.23;;
76290;SDS011;65100;46.884;17.410;2023-08-12T13:49:35;7.77;;;4.27;;
76290;SDS011;65100;46.884;17.410;2023-08-12T13:52:00;7.53;;;4.27;;
76290;SDS011;65100;46.884;17.410;2023-08-12T13:54:26;7.38;;;4.22;;
76290;SDS011;65100;46.884;17.410;2023-08-12T13:56:51;7.03;;;4.43;;
76290;SDS011;65100;46.884;17.410;2023-08-12T13:59:16;7.80;;;4.40;;
76290;SDS011;65100;46.884;17.410;2023-08-12T14:01:42;7.43;;;4.30;;
76290;SDS011;65100;46.884;17.410;2023-08-12T14:04:07;7.80;;;4.50;;
76290;SDS011;65100;46.884;17.410;2023-08-12T14:06:33;8.20;;;4.40;;
76290;SDS011;65100;46.884;17.410;2023-08-12T14:08:58;7.20;;;4.40;;
76290;SDS011;65100;46.884;17.410;2023-08-12T14:11:23;7.30;;;4.60;;
76290;SDS011;65100;46.884;17.410;2023-08-12T14:13:49;7.07;;;4.30;;
76290;SDS011;65100;46.884;17.410;2023-08-12T14:16:14;7.70;;;4.35;;
76290;SDS011;65100;46.884;17.410;2023-08-12T14:18:40;7.17;;;4.30;;
76290;SDS011;65100;46.884;17.410;2023-08-12T14:21:05;6.90;;;4.37;;
76290;SDS011;65100;46.884;17.410;2023-08-12T14:23:31;7.25;;;4.38;;
76290;SDS011;65100;46.884;17.410;2023-08-12T14:25:56;6.87;;;4.20;;
76290;SDS011;65100;46.884;17.410;2023-08-12T14:28:22;6.90;;;4.30;;
76290;SDS011;65100;46.884;17.410;2023-08-12T14:30:48;7.20;;;4.22;;
76290;SDS011;65100;46.884;17.410;2023-08-12T14:33:13;6.97;;;4.30;;
76290;SDS011;65100;46.884;17.410;2023-08-12T14:35:39;7.63;;;4.10;;
76290;SDS011;65100;46.884;17.410;2023-08-12T14:38:04;7.63;;;4.32;;
76290;SDS011;65100;46.884;17.410;2023-08-12T14:40:30;8.07;;;4.50;;
76290;SDS011;65100;46.884;17.410;2023-08-12T14:42:55;9.13;;;4.37;;
76290;SDS011;65100;46.884;17.410;2023-08-12T14:45:21;6.90;;;4.20;;
76290;SDS011;65100;46.884;17.410;2023-08-12T14:47:46;7.07;;;4.20;;